This is the latest recevied weather packets stored in our database for station/object AF9W-5. If no packets are shown the sender has not sent any weather packets the latest 10 day(s).
| Time | Temp. | Humidity | Pressure | Rain* | Wind** | Luminosity | Snow |
|---|---|---|---|---|---|---|---|
| 1777742254 | 28.33° C | 19% | 1015.6 hPa | 0 mm | - | 734 W/m² | - |
| 1777741042 | 26.67° C | 24% | 1015.4 hPa | 0 mm | - | 688 W/m² | - |
| 1777739828 | 26.67° C | 23% | 1015.1 hPa | 0 mm | - | 637 W/m² | - |
| 1777739525 | 26.67° C | 23% | 1015.2 hPa | 0 mm | - | 622 W/m² | - |
| 1777739222 | 26.11° C | 24% | 1015.1 hPa | 0 mm | - | 606 W/m² | - |
| 1777738918 | 25.56° C | 25% | 1015.2 hPa | 0 mm | - | 592 W/m² | - |
| 1777738616 | 26.11° C | 23% | 1015.1 hPa | 0 mm | - | 578 W/m² | - |
| 1777738010 | 26.11° C | 23% | 1014.8 hPa | 0 mm | - | 545 W/m² | - |
| 1777737709 | 26.11° C | 23% | 1015.1 hPa | 0 mm | - | 530 W/m² | - |
| 1777737104 | 26.11° C | 23% | 1015 hPa | 0 mm | - | 499 W/m² | - |
| 1777736172 | 25.56° C | 26% | 1014.8 hPa | 0 mm | - | 450 W/m² | - |
| 1777735869 | 25.56° C | 26% | 1014.7 hPa | 0 mm | - | 431 W/m² | - |
| 1777735566 | 25.56° C | 25% | 1014.5 hPa | 0 mm | - | 413 W/m² | - |
| 1777735263 | 25° C | 26% | 1014.7 hPa | 0 mm | - | 395 W/m² | - |
| 1777734960 | 26.11° C | 26% | 1014.5 hPa | 0 mm | - | 379 W/m² | - |
| 1777734657 | 24.44° C | 27% | 1014.6 hPa | 0 mm | - | 364 W/m² | - |
| 1777734355 | 23.89° C | 27% | 1014.5 hPa | 0 mm | - | 347 W/m² | - |
| 1777734050 | 24.44° C | 27% | 1014.3 hPa | 0 mm | - | 327 W/m² | - |
| 1777733748 | 23.89° C | 28% | 1014.4 hPa | 0 mm | - | 310 W/m² | - |
| 1777733444 | 23.33° C | 28% | 1014.3 hPa | 0 mm | - | 293 W/m² | - |
| 1777733140 | 22.78° C | 28% | 1014.5 hPa | 0 mm | - | 276 W/m² | - |
| 1777732838 | 21.67° C | 30% | 1014.4 hPa | 0 mm | - | 261 W/m² | - |
| 1777732534 | 21.11° C | 29% | 1014.3 hPa | 0 mm | - | 245 W/m² | - |
| 1777732233 | 21.11° C | 30% | 1014.2 hPa | 0 mm | - | 229 W/m² | - |
| 1777731929 | 20.56° C | 30% | 1014.3 hPa | 0 mm | - | 212 W/m² | - |
* Rain latest hour (hover to see other rain measurements)
** Current wind speed in m/s (hover to see current wind gust speed)